^^
Station Historical Data
Daily Summary for April 10, 2019 Units:  English    Metric   Both
« Previous Day
Next Day »
Daily Weekly Monthly Yearly Custom
  High: Low: Average:
Temperature: 31.5 °F 21.7 °F 26.1 °F
Dew Point: 23.3 °F 17.7 °F 20.1 °F
Humidity: 86% 63% 78%
Wind Speed: 22.0mph 4.0mph 12.4mph
Wind Gust: 25.0mph - -
Wind- - NE
Pressure: 30.13 in 30.02 in -
Precipitation: 0.00 in    
Historical Graphs
 
 
Tabular Data for April 10, 2019
Time Temperature Dew Point Pressure Wind Wind Speed Wind Gust Humidity Rainfall Rate (Hourly) solar Conditions
00:04 27.4 °F 22.3 °F 30.04 in ENE 15.0 mph 20.0 mph 81% 0.00 in 0.00 W/m2
00:09 27.3 °F 22.5 °F 30.04 in ENE 13.0 mph 20.0 mph 82% 0.00 in 0.00 W/m2
00:14 27.2 °F 22.4 °F 30.05 in NE 12.0 mph 24.0 mph 82% 0.00 in 0.00 W/m2
00:19 27.0 °F 22.2 °F 30.04 in ENE 11.0 mph 24.0 mph 82% 0.00 in 0.00 W/m2
00:24 26.9 °F 22.1 °F 30.04 in NE 11.0 mph 22.0 mph 82% 0.00 in 0.00 W/m2
00:29 26.8 °F 22.0 °F 30.04 in NE 11.0 mph 22.0 mph 82% 0.00 in 0.00 W/m2
00:34 26.7 °F 21.9 °F 30.04 in ENE 10.0 mph 21.0 mph 82% 0.00 in 0.00 W/m2
00:39 26.6 °F 22.1 °F 30.04 in ENE 16.0 mph 20.0 mph 83% 0.00 in 0.00 W/m2
00:44 26.4 °F 21.9 °F 30.03 in ENE 15.0 mph 22.0 mph 83% 0.00 in 0.00 W/m2
00:49 26.2 °F 21.7 °F 30.03 in NE 12.0 mph 22.0 mph 83% 0.00 in 0.00 W/m2
00:54 26.1 °F 21.6 °F 30.03 in NE 21.0 mph 24.0 mph 83% 0.00 in 0.00 W/m2
00:59 26.0 °F 21.5 °F 30.03 in ENE 16.0 mph 24.0 mph 83% 0.00 in 0.00 W/m2
01:04 25.8 °F 21.3 °F 30.03 in NE 9.0 mph 24.0 mph 83% 0.00 in 0.00 W/m2
01:09 25.6 °F 21.2 °F 30.02 in NE 20.0 mph 25.0 mph 83% 0.00 in 0.00 W/m2
01:14 25.5 °F 21.3 °F 30.03 in ENE 11.0 mph 25.0 mph 84% 0.00 in 0.00 W/m2
01:19 25.4 °F 21.2 °F 30.03 in ENE 21.0 mph 21.0 mph 84% 0.00 in 0.00 W/m2
01:24 25.3 °F 21.1 °F 30.03 in NE 12.0 mph 21.0 mph 84% 0.00 in 0.00 W/m2
01:29 25.1 °F 20.7 °F 30.02 in NE 18.0 mph 25.0 mph 83% 0.00 in 0.00 W/m2
01:34 24.9 °F 20.8 °F 30.03 in East 11.0 mph 25.0 mph 84% 0.00 in 0.00 W/m2
01:39 24.9 °F 20.8 °F 30.03 in NE 14.0 mph 23.0 mph 84% 0.00 in 0.00 W/m2
01:44 24.8 °F 20.7 °F 30.04 in NE 8.0 mph 20.0 mph 84% 0.00 in 0.00 W/m2
01:49 24.8 °F 20.7 °F 30.04 in NE 16.0 mph 19.0 mph 84% 0.00 in 0.00 W/m2
01:54 24.6 °F 20.2 °F 30.04 in ENE 14.0 mph 19.0 mph 83% 0.00 in 0.00 W/m2
01:59 24.5 °F 20.4 °F 30.04 in ENE 13.0 mph 19.0 mph 84% 0.00 in 0.00 W/m2
02:04 24.5 °F 20.4 °F 30.04 in NE 12.0 mph 18.0 mph 84% 0.00 in 0.00 W/m2
02:09 24.4 °F 20.3 °F 30.05 in NE 12.0 mph 21.0 mph 84% 0.00 in 0.00 W/m2
02:14 24.2 °F 20.1 °F 30.05 in ENE 9.0 mph 21.0 mph 84% 0.00 in 0.00 W/m2
02:19 24.2 °F 20.1 °F 30.05 in ENE 11.0 mph 15.0 mph 84% 0.00 in 0.00 W/m2
02:24 24.0 °F 19.9 °F 30.05 in ENE 12.0 mph 18.0 mph 84% 0.00 in 0.00 W/m2
02:29 24.0 °F 19.6 °F 30.06 in ENE 13.0 mph 18.0 mph 83% 0.00 in 0.00 W/m2
02:34 24.0 °F 19.9 °F 30.06 in NE 15.0 mph 17.0 mph 84% 0.00 in 0.00 W/m2
02:39 23.9 °F 19.8 °F 30.06 in ENE 13.0 mph 16.0 mph 84% 0.00 in 0.00 W/m2
02:44 23.7 °F 19.3 °F 30.05 in ENE 13.0 mph 17.0 mph 83% 0.00 in 0.00 W/m2
02:49 23.5 °F 19.1 °F 30.05 in NE 6.0 mph 17.0 mph 83% 0.00 in 0.00 W/m2
02:54 23.4 °F 19.0 °F 30.05 in East 16.0 mph 17.0 mph 83% 0.00 in 0.00 W/m2
02:59 23.2 °F 18.8 °F 30.06 in ENE 7.0 mph 17.0 mph 83% 0.00 in 0.00 W/m2
03:04 23.2 °F 19.1 °F 30.05 in ENE 12.0 mph 17.0 mph 84% 0.00 in 0.00 W/m2
03:09 23.1 °F 19.0 °F 30.05 in NE 11.0 mph 18.0 mph 84% 0.00 in 0.00 W/m2
03:14 23.0 °F 18.9 °F 30.05 in East 11.0 mph 18.0 mph 84% 0.00 in 0.00 W/m2
03:19 22.9 °F 18.8 °F 30.06 in ENE 7.0 mph 18.0 mph 84% 0.00 in 0.00 W/m2
03:24 22.8 °F 18.7 °F 30.06 in ENE 13.0 mph 17.0 mph 84% 0.00 in 0.00 W/m2
03:29 22.7 °F 18.6 °F 30.06 in East 11.0 mph 17.0 mph 84% 0.00 in 0.00 W/m2
03:34 22.6 °F 18.5 °F 30.04 in NE 11.0 mph 20.0 mph 84% 0.00 in 0.00 W/m2
03:39 22.6 °F 18.5 °F 30.04 in NE 8.0 mph 20.0 mph 84% 0.00 in 0.00 W/m2
03:44 22.5 °F 18.4 °F 30.05 in ENE 11.0 mph 17.0 mph 84% 0.00 in 0.00 W/m2
03:49 22.4 °F 18.6 °F 30.04 in ENE 12.0 mph 18.0 mph 85% 0.00 in 0.00 W/m2
03:54 22.4 °F 18.6 °F 30.04 in ENE 12.0 mph 18.0 mph 85% 0.00 in 0.00 W/m2
03:59 22.2 °F 18.4 °F 30.03 in ENE 12.0 mph 18.0 mph 85% 0.00 in 0.00 W/m2
04:04 22.1 °F 18.3 °F 30.03 in ENE 15.0 mph 18.0 mph 85% 0.00 in 0.00 W/m2
04:09 22.1 °F 18.3 °F 30.03 in ENE 15.0 mph 18.0 mph 85% 0.00 in 0.00 W/m2
04:14 22.1 °F 18.3 °F 30.03 in NE 19.0 mph 19.0 mph 85% 0.00 in 0.00 W/m2
04:19 22.1 °F 18.3 °F 30.03 in NE 18.0 mph 20.0 mph 85% 0.00 in 0.00 W/m2
04:24 22.1 °F 18.3 °F 30.03 in NE 18.0 mph 20.0 mph 85% 0.00 in 0.00 W/m2
04:29 22.1 °F 18.3 °F 30.03 in NE 12.0 mph 14.0 mph 85% 0.00 in 0.00 W/m2
04:34 22.0 °F 18.2 °F 30.03 in NE 10.0 mph 17.0 mph 85% 0.00 in 0.00 W/m2
04:39 21.9 °F 18.4 °F 30.03 in NE 10.0 mph 17.0 mph 86% 0.00 in 0.00 W/m2
04:44 21.8 °F 18.0 °F 30.03 in ENE 11.0 mph 16.0 mph 85% 0.00 in 0.00 W/m2
04:49 21.7 °F 18.2 °F 30.03 in NE 10.0 mph 16.0 mph 86% 0.00 in 0.00 W/m2
04:54 21.8 °F 18.0 °F 30.04 in ENE 8.0 mph 15.0 mph 85% 0.00 in 0.00 W/m2
04:59 21.8 °F 18.0 °F 30.03 in ENE 14.0 mph 16.0 mph 85% 0.00 in 0.00 W/m2
05:04 21.9 °F 18.1 °F 30.03 in NE 8.0 mph 16.0 mph 85% 0.00 in 0.00 W/m2
05:09 22.0 °F 18.2 °F 30.03 in NE 11.0 mph 15.0 mph 85% 0.00 in 0.00 W/m2
05:14 22.0 °F 18.2 °F 30.03 in ENE 12.0 mph 16.0 mph 85% 0.00 in 0.00 W/m2
05:19 22.0 °F 18.2 °F 30.02 in NE 12.0 mph 17.0 mph 85% 0.00 in 0.00 W/m2
05:24 21.9 °F 17.8 °F 30.02 in East 6.0 mph 17.0 mph 84% 0.00 in 0.00 W/m2
05:29 22.0 °F 18.2 °F 30.03 in ENE 14.0 mph 17.0 mph 85% 0.00 in 0.00 W/m2
05:34 22.1 °F 18.3 °F 30.04 in NE 9.0 mph 16.0 mph 85% 0.00 in 0.00 W/m2
05:39 22.1 °F 18.3 °F 30.04 in NE 6.0 mph 16.0 mph 85% 0.00 in 0.00 W/m2
05:44 22.2 °F 18.4 °F 30.04 in ENE 9.0 mph 14.0 mph 85% 0.00 in 0.00 W/m2
05:49 22.3 °F 18.5 °F 30.04 in NE 7.0 mph 17.0 mph 85% 0.00 in 0.00 W/m2
05:54 22.5 °F 18.7 °F 30.04 in ENE 12.0 mph 17.0 mph 85% 0.00 in 0.00 W/m2
05:59 22.5 °F 18.7 °F 30.04 in NE 14.0 mph 19.0 mph 85% 0.00 in 0.00 W/m2
06:04 22.3 °F 18.5 °F 30.04 in NE 11.0 mph 19.0 mph 85% 0.00 in 0.00 W/m2
06:09 22.2 °F 18.1 °F 30.04 in NE 13.0 mph 18.0 mph 84% 0.00 in 0.00 W/m2
06:14 22.1 °F 18.3 °F 30.05 in NE 12.0 mph 18.0 mph 85% 0.00 in 0.00 W/m2
06:19 21.9 °F 17.8 °F 30.05 in ENE 13.0 mph 19.0 mph 84% 0.00 in 0.00 W/m2
06:24 21.9 °F 17.8 °F 30.05 in ENE 13.0 mph 19.0 mph 84% 0.00 in 0.00 W/m2
06:29 21.8 °F 17.7 °F 30.05 in ENE 13.0 mph 19.0 mph 84% 0.00 in 0.00 W/m2
06:34 21.9 °F 17.8 °F 30.05 in NE 9.0 mph 15.0 mph 84% 0.00 in 0.00 W/m2
06:39 22.0 °F 17.9 °F 30.06 in NE 11.0 mph 16.0 mph 84% 0.00 in 0.00 W/m2
06:44 21.9 °F 17.8 °F 30.05 in NE 10.0 mph 18.0 mph 84% 0.00 in 0.00 W/m2
06:49 21.8 °F 17.7 °F 30.06 in NE 10.0 mph 18.0 mph 84% 0.00 in 0.00 W/m2
06:54 21.7 °F 17.9 °F 30.06 in NE 10.0 mph 17.0 mph 85% 0.00 in 0.00 W/m2
06:59 21.7 °F 17.9 °F 30.06 in NE 11.0 mph 18.0 mph 85% 0.00 in 0.00 W/m2
07:04 21.7 °F 17.9 °F 30.06 in NE 14.0 mph 18.0 mph 85% 0.00 in 0.00 W/m2
07:09 21.7 °F 17.9 °F 30.06 in NE 7.0 mph 18.0 mph 85% 0.00 in 0.00 W/m2
07:14 21.7 °F 17.9 °F 30.06 in NE 9.0 mph 17.0 mph 85% 0.00 in 0.00 W/m2
07:19 21.7 °F 17.9 °F 30.06 in NE 11.0 mph 17.0 mph 85% 0.00 in 7.00 W/m2
07:24 21.7 °F 17.9 °F 30.06 in NE 10.0 mph 16.0 mph 85% 0.00 in 11.00 W/m2
07:29 21.8 °F 18.0 °F 30.06 in NE 10.0 mph 22.0 mph 85% 0.00 in 12.00 W/m2
07:34 21.8 °F 18.0 °F 30.06 in NNE 10.0 mph 22.0 mph 85% 0.00 in 14.00 W/m2
07:39 21.8 °F 18.0 °F 30.06 in NE 13.0 mph 21.0 mph 85% 0.00 in 18.00 W/m2
07:44 21.9 °F 18.1 °F 30.07 in NE 6.0 mph 21.0 mph 85% 0.00 in 19.00 W/m2
07:49 22.0 °F 18.2 °F 30.07 in NE 12.0 mph 19.0 mph 85% 0.00 in 25.00 W/m2
07:54 22.0 °F 18.2 °F 30.07 in NE 12.0 mph 19.0 mph 85% 0.00 in 30.00 W/m2
07:59 22.1 °F 18.3 °F 30.07 in NE 17.0 mph 18.0 mph 85% 0.00 in 33.00 W/m2
08:04 22.1 °F 18.3 °F 30.07 in NE 12.0 mph 18.0 mph 85% 0.00 in 39.00 W/m2
08:09 22.2 °F 18.4 °F 30.07 in NE 14.0 mph 20.0 mph 85% 0.00 in 44.00 W/m2
08:14 22.4 °F 18.6 °F 30.08 in ENE 11.0 mph 20.0 mph 85% 0.00 in 51.00 W/m2
08:19 22.5 °F 18.7 °F 30.08 in NNE 11.0 mph 17.0 mph 85% 0.00 in 58.00 W/m2
08:24 22.6 °F 18.5 °F 30.08 in NE 12.0 mph 18.0 mph 84% 0.00 in 63.00 W/m2
08:29 22.7 °F 18.6 °F 30.08 in ENE 10.0 mph 18.0 mph 84% 0.00 in 65.00 W/m2
08:34 22.8 °F 18.7 °F 30.08 in NE 15.0 mph 20.0 mph 84% 0.00 in 65.00 W/m2
08:39 22.9 °F 18.8 °F 30.08 in NE 12.0 mph 20.0 mph 84% 0.00 in 70.00 W/m2
08:44 23.0 °F 18.6 °F 30.08 in ENE 12.0 mph 18.0 mph 83% 0.00 in 74.00 W/m2
08:49 23.1 °F 18.7 °F 30.09 in NE 12.0 mph 19.0 mph 83% 0.00 in 79.00 W/m2
08:54 23.3 °F 18.9 °F 30.09 in NE 15.0 mph 20.0 mph 83% 0.00 in 83.00 W/m2
08:59 23.4 °F 19.0 °F 30.09 in NNE 13.0 mph 20.0 mph 83% 0.00 in 86.00 W/m2
09:04 23.5 °F 19.1 °F 30.09 in NE 14.0 mph 18.0 mph 83% 0.00 in 97.00 W/m2
09:09 23.7 °F 19.0 °F 30.09 in NNE 7.0 mph 18.0 mph 82% 0.00 in 102.00 W/m2
09:14 23.9 °F 19.2 °F 30.09 in NE 13.0 mph 16.0 mph 82% 0.00 in 109.00 W/m2
09:19 24.0 °F 19.0 °F 30.09 in NE 14.0 mph 19.0 mph 81% 0.00 in 114.00 W/m2
09:24 24.2 °F 19.2 °F 30.09 in ENE 12.0 mph 19.0 mph 81% 0.00 in 114.00 W/m2
09:29 24.3 °F 19.0 °F 30.09 in NNE 8.0 mph 18.0 mph 80% 0.00 in 120.00 W/m2
09:34 24.5 °F 18.9 °F 30.09 in NE 13.0 mph 18.0 mph 79% 0.00 in 120.00 W/m2
09:39 24.7 °F 19.4 °F 30.09 in ENE 10.0 mph 18.0 mph 80% 0.00 in 116.00 W/m2
09:44 24.8 °F 18.9 °F 30.09 in NNE 15.0 mph 19.0 mph 78% 0.00 in 118.00 W/m2
09:49 24.9 °F 19.0 °F 30.09 in NE 14.0 mph 19.0 mph 78% 0.00 in 125.00 W/m2
09:54 25.0 °F 18.8 °F 30.09 in NE 16.0 mph 21.0 mph 77% 0.00 in 130.00 W/m2
09:59 25.1 °F 18.9 °F 30.09 in NE 18.0 mph 21.0 mph 77% 0.00 in 132.00 W/m2
10:04 25.2 °F 19.0 °F 30.09 in NE 8.0 mph 20.0 mph 77% 0.00 in 135.00 W/m2
10:09 25.4 °F 19.2 °F 30.09 in NE 13.0 mph 19.0 mph 77% 0.00 in 141.00 W/m2
10:14 25.4 °F 18.9 °F 30.09 in NE 14.0 mph 19.0 mph 76% 0.00 in 148.00 W/m2
10:19 25.5 °F 19.0 °F 30.09 in ENE 11.0 mph 19.0 mph 76% 0.00 in 153.00 W/m2
10:24 25.7 °F 19.2 °F 30.09 in NE 13.0 mph 19.0 mph 76% 0.00 in 158.00 W/m2
10:29 25.8 °F 19.0 °F 30.09 in ENE 12.0 mph 20.0 mph 75% 0.00 in 162.00 W/m2
10:34 25.8 °F 19.0 °F 30.08 in ENE 10.0 mph 20.0 mph 75% 0.00 in 162.00 W/m2
10:39 25.8 °F 19.0 °F 30.08 in NE 16.0 mph 18.0 mph 75% 0.00 in 165.00 W/m2
10:44 25.9 °F 19.4 °F 30.08 in NE 16.0 mph 18.0 mph 76% 0.00 in 176.00 W/m2
10:49 26.2 °F 19.7 °F 30.07 in NE 16.0 mph 18.0 mph 76% 0.00 in 183.00 W/m2
10:54 26.2 °F 19.4 °F 30.07 in NE 13.0 mph 23.0 mph 75% 0.00 in 209.00 W/m2
10:59 26.2 °F 19.7 °F 30.07 in NE 15.0 mph 23.0 mph 76% 0.00 in 223.00 W/m2
11:04 26.5 °F 20.0 °F 30.07 in NE 11.0 mph 22.0 mph 76% 0.00 in 251.00 W/m2
11:09 26.7 °F 20.1 °F 30.07 in NE 12.0 mph 22.0 mph 76% 0.00 in 264.00 W/m2
11:14 26.9 °F 20.3 °F 30.07 in ENE 17.0 mph 23.0 mph 76% 0.00 in 258.00 W/m2
11:19 26.9 °F 20.3 °F 30.07 in NE 15.0 mph 23.0 mph 76% 0.00 in 239.00 W/m2
11:24 27.1 °F 20.2 °F 30.07 in NE 14.0 mph 21.0 mph 75% 0.00 in 220.00 W/m2
11:29 27.3 °F 20.4 °F 30.07 in NE 19.0 mph 21.0 mph 75% 0.00 in 213.00 W/m2
11:34 27.2 °F 20.3 °F 30.07 in NE 11.0 mph 21.0 mph 75% 0.00 in 237.00 W/m2
11:39 27.5 °F 20.6 °F 30.07 in NE 10.0 mph 20.0 mph 75% 0.00 in 244.00 W/m2
11:44 27.7 °F 20.8 °F 30.07 in NE 13.0 mph 20.0 mph 75% 0.00 in 207.00 W/m2
11:49 27.6 °F 20.7 °F 30.07 in ENE 17.0 mph 23.0 mph 75% 0.00 in 200.00 W/m2
11:54 27.8 °F 20.9 °F 30.07 in ENE 18.0 mph 23.0 mph 75% 0.00 in 200.00 W/m2
11:59 27.8 °F 20.9 °F 30.07 in NE 10.0 mph 21.0 mph 75% 0.00 in 186.00 W/m2
12:04 27.8 °F 20.6 °F 30.08 in East 14.0 mph 21.0 mph 74% 0.00 in 178.00 W/m2
12:09 27.7 °F 20.5 °F 30.08 in ENE 12.0 mph 24.0 mph 74% 0.00 in 199.00 W/m2
12:14 27.8 °F 20.6 °F 30.08 in East 8.0 mph 24.0 mph 74% 0.00 in 200.00 W/m2
12:19 28.0 °F 20.8 °F 30.08 in ENE 16.0 mph 18.0 mph 74% 0.00 in 190.00 W/m2
12:24 28.0 °F 20.5 °F 30.08 in ENE 12.0 mph 23.0 mph 73% 0.00 in 206.00 W/m2
12:29 28.0 °F 20.5 °F 30.08 in NE 12.0 mph 23.0 mph 73% 0.00 in 181.00 W/m2
12:34 28.2 °F 20.7 °F 30.08 in ENE 16.0 mph 21.0 mph 73% 0.00 in 163.00 W/m2
12:39 28.1 °F 20.6 °F 30.08 in NE 10.0 mph 22.0 mph 73% 0.00 in 176.00 W/m2
12:44 28.4 °F 20.8 °F 30.08 in NE 11.0 mph 22.0 mph 73% 0.00 in 179.00 W/m2
12:49 28.4 °F 20.5 °F 30.08 in ENE 11.0 mph 18.0 mph 72% 0.00 in 165.00 W/m2
12:54 28.5 °F 20.9 °F 30.08 in NE 13.0 mph 19.0 mph 73% 0.00 in 156.00 W/m2
12:59 28.5 °F 20.3 °F 30.08 in NE 14.0 mph 20.0 mph 71% 0.00 in 174.00 W/m2
13:04 28.6 °F 20.7 °F 30.08 in ENE 12.0 mph 20.0 mph 72% 0.00 in 188.00 W/m2
13:09 28.8 °F 20.6 °F 30.08 in NE 9.0 mph 19.0 mph 71% 0.00 in 186.00 W/m2
13:14 29.1 °F 20.9 °F 30.08 in NNE 15.0 mph 19.0 mph 71% 0.00 in 200.00 W/m2
13:19 29.3 °F 21.1 °F 30.07 in NE 12.0 mph 16.0 mph 71% 0.00 in 181.00 W/m2
13:24 29.3 °F 20.7 °F 30.07 in East 11.0 mph 19.0 mph 70% 0.00 in 227.00 W/m2
13:29 29.4 °F 20.8 °F 30.07 in NE 15.0 mph 21.0 mph 70% 0.00 in 258.00 W/m2
13:34 29.6 °F 20.3 °F 30.07 in NE 17.0 mph 23.0 mph 68% 0.00 in 281.00 W/m2
13:39 29.7 °F 20.4 °F 30.07 in NE 22.0 mph 23.0 mph 68% 0.00 in 287.00 W/m2
13:44 29.9 °F 20.3 °F 30.07 in NE 12.0 mph 22.0 mph 67% 0.00 in 301.00 W/m2
13:49 30.2 °F 20.6 °F 30.07 in ENE 11.0 mph 22.0 mph 67% 0.00 in 199.00 W/m2
13:54 30.2 °F 20.6 °F 30.07 in ENE 12.0 mph 20.0 mph 67% 0.00 in 311.00 W/m2
13:59 30.5 °F 20.8 °F 30.07 in NE 12.0 mph 21.0 mph 67% 0.00 in 297.00 W/m2
14:04 30.6 °F 20.6 °F 30.06 in NE 17.0 mph 23.0 mph 66% 0.00 in 274.00 W/m2
14:09 30.4 °F 20.0 °F 30.06 in NE 13.0 mph 23.0 mph 65% 0.00 in 311.00 W/m2
14:14 30.5 °F 20.1 °F 30.06 in NE 17.0 mph 20.0 mph 65% 0.00 in 290.00 W/m2
14:19 30.7 °F 20.7 °F 30.06 in NE 15.0 mph 20.0 mph 66% 0.00 in 265.00 W/m2
14:24 30.6 °F 19.9 °F 30.06 in ENE 21.0 mph 23.0 mph 64% 0.00 in 218.00 W/m2
14:29 30.4 °F 20.0 °F 30.06 in NE 17.0 mph 23.0 mph 65% 0.00 in 239.00 W/m2
14:34 30.6 °F 20.6 °F 30.07 in ENE 19.0 mph 22.0 mph 66% 0.00 in 243.00 W/m2
14:39 30.8 °F 20.4 °F 30.06 in ENE 13.0 mph 22.0 mph 65% 0.00 in 227.00 W/m2
14:44 30.8 °F 20.4 °F 30.06 in NE 14.0 mph 20.0 mph 65% 0.00 in 214.00 W/m2
14:49 30.8 °F 20.4 °F 30.06 in NNE 8.0 mph 20.0 mph 65% 0.00 in 258.00 W/m2
14:54 31.1 °F 20.7 °F 30.05 in NE 16.0 mph 21.0 mph 65% 0.00 in 306.00 W/m2
14:59 31.1 °F 20.3 °F 30.06 in NE 17.0 mph 21.0 mph 64% 0.00 in 334.00 W/m2
15:04 31.3 °F 20.9 °F 30.06 in NE 18.0 mph 21.0 mph 65% 0.00 in 264.00 W/m2
15:09 31.2 °F 20.8 °F 30.06 in NE 10.0 mph 24.0 mph 65% 0.00 in 283.00 W/m2
15:14 31.2 °F 20.4 °F 30.06 in NE 15.0 mph 24.0 mph 64% 0.00 in 257.00 W/m2
15:19 31.1 °F 20.3 °F 30.06 in NE 9.0 mph 21.0 mph 64% 0.00 in 278.00 W/m2
15:24 31.2 °F 20.4 °F 30.06 in NNE 15.0 mph 23.0 mph 64% 0.00 in 297.00 W/m2
15:29 31.3 °F 20.9 °F 30.06 in NNE 13.0 mph 23.0 mph 65% 0.00 in 306.00 W/m2
15:34 31.2 °F 20.4 °F 30.06 in NE 12.0 mph 21.0 mph 64% 0.00 in 253.00 W/m2
15:39 30.9 °F 20.5 °F 30.06 in NE 14.0 mph 22.0 mph 65% 0.00 in 338.00 W/m2
15:44 31.0 °F 20.2 °F 30.06 in NE 14.0 mph 22.0 mph 64% 0.00 in 269.00 W/m2
15:49 30.8 °F 20.0 °F 30.06 in NE 17.0 mph 22.0 mph 64% 0.00 in 318.00 W/m2
15:54 31.1 °F 20.7 °F 30.06 in NNE 19.0 mph 22.0 mph 65% 0.00 in 318.00 W/m2
15:59 31.0 °F 20.2 °F 30.06 in ENE 16.0 mph 22.0 mph 64% 0.00 in 299.00 W/m2
16:04 31.1 °F 20.3 °F 30.06 in ENE 16.0 mph 22.0 mph 64% 0.00 in 339.00 W/m2
16:09 31.5 °F 20.3 °F 30.06 in NE 13.0 mph 16.0 mph 63% 0.00 in 251.00 W/m2
16:14 31.4 °F 20.6 °F 30.07 in NE 13.0 mph 22.0 mph 64% 0.00 in 243.00 W/m2
16:19 30.8 °F 20.0 °F 30.07 in NE 14.0 mph 22.0 mph 64% 0.00 in 188.00 W/m2
16:24 30.2 °F 19.8 °F 30.07 in NE 16.0 mph 24.0 mph 65% 0.00 in 199.00 W/m2
16:29 30.1 °F 20.1 °F 30.07 in NNE 15.0 mph 24.0 mph 66% 0.00 in 144.00 W/m2
16:34 29.8 °F 19.8 °F 30.07 in NNE 14.0 mph 22.0 mph 66% 0.00 in 149.00 W/m2
16:39 29.7 °F 20.1 °F 30.08 in NNE 10.0 mph 22.0 mph 67% 0.00 in 134.00 W/m2
16:44 29.3 °F 19.7 °F 30.07 in ENE 11.0 mph 21.0 mph 67% 0.00 in 134.00 W/m2
16:49 28.9 °F 19.3 °F 30.07 in NNE 16.0 mph 23.0 mph 67% 0.00 in 146.00 W/m2
16:54 28.7 °F 19.5 °F 30.07 in NE 15.0 mph 23.0 mph 68% 0.00 in 139.00 W/m2
16:59 28.6 °F 19.7 °F 30.07 in NE 21.0 mph 22.0 mph 69% 0.00 in 156.00 W/m2
17:04 28.4 °F 19.9 °F 30.07 in NNE 21.0 mph 22.0 mph 70% 0.00 in 144.00 W/m2
17:09 28.1 °F 19.6 °F 30.07 in NE 18.0 mph 22.0 mph 70% 0.00 in 139.00 W/m2
17:14 28.0 °F 19.8 °F 30.07 in NNE 15.0 mph 24.0 mph 71% 0.00 in 221.00 W/m2
17:19 28.1 °F 19.6 °F 30.07 in NE 14.0 mph 24.0 mph 70% 0.00 in 149.00 W/m2
17:24 28.2 °F 19.7 °F 30.07 in NE 12.0 mph 23.0 mph 70% 0.00 in 130.00 W/m2
17:29 28.3 °F 19.4 °F 30.07 in NE 16.0 mph 21.0 mph 69% 0.00 in 111.00 W/m2
17:34 28.0 °F 19.5 °F 30.07 in NE 8.0 mph 21.0 mph 70% 0.00 in 113.00 W/m2
17:39 27.9 °F 19.4 °F 30.07 in NE 17.0 mph 21.0 mph 70% 0.00 in 118.00 W/m2
17:44 27.8 °F 19.3 °F 30.08 in NNE 9.0 mph 21.0 mph 70% 0.00 in 102.00 W/m2
17:49 27.8 °F 19.3 °F 30.08 in NE 9.0 mph 22.0 mph 70% 0.00 in 109.00 W/m2
17:54 27.9 °F 19.4 °F 30.08 in NNE 19.0 mph 22.0 mph 70% 0.00 in 120.00 W/m2
17:59 28.0 °F 19.5 °F 30.08 in NE 14.0 mph 22.0 mph 70% 0.00 in 111.00 W/m2
18:04 27.9 °F 19.4 °F 30.08 in North 18.0 mph 23.0 mph 70% 0.00 in 98.00 W/m2
18:09 27.8 °F 19.6 °F 30.08 in NNE 13.0 mph 23.0 mph 71% 0.00 in 84.00 W/m2
18:14 27.8 °F 19.6 °F 30.08 in NNE 14.0 mph 20.0 mph 71% 0.00 in 76.00 W/m2
18:19 27.7 °F 19.5 °F 30.07 in NE 20.0 mph 23.0 mph 71% 0.00 in 70.00 W/m2
18:24 27.5 °F 19.7 °F 30.08 in NE 22.0 mph 24.0 mph 72% 0.00 in 84.00 W/m2
18:29 27.4 °F 19.6 °F 30.08 in NE 11.0 mph 24.0 mph 72% 0.00 in 84.00 W/m2
18:34 27.4 °F 19.6 °F 30.08 in NE 15.0 mph 22.0 mph 72% 0.00 in 72.00 W/m2
18:39 27.3 °F 19.8 °F 30.09 in NE 17.0 mph 21.0 mph 73% 0.00 in 54.00 W/m2
18:44 27.3 °F 19.8 °F 30.09 in NE 17.0 mph 21.0 mph 73% 0.00 in 47.00 W/m2
18:49 27.1 °F 19.6 °F 30.09 in ENE 14.0 mph 21.0 mph 73% 0.00 in 42.00 W/m2
18:54 26.9 °F 19.7 °F 30.09 in NE 18.0 mph 24.0 mph 74% 0.00 in 39.00 W/m2
18:59 26.7 °F 19.8 °F 30.09 in NNE 8.0 mph 24.0 mph 75% 0.00 in 33.00 W/m2
19:04 26.8 °F 20.2 °F 30.10 in NE 13.0 mph 20.0 mph 76% 0.00 in 28.00 W/m2
19:09 26.7 °F 20.1 °F 30.10 in NE 13.0 mph 21.0 mph 76% 0.00 in 30.00 W/m2
19:14 26.7 °F 20.5 °F 30.11 in NE 13.0 mph 21.0 mph 77% 0.00 in 25.00 W/m2
19:19 26.6 °F 20.4 °F 30.11 in NE 8.0 mph 19.0 mph 77% 0.00 in 19.00 W/m2
19:24 26.6 °F 20.7 °F 30.11 in NE 10.0 mph 19.0 mph 78% 0.00 in 12.00 W/m2
19:29 26.6 °F 20.7 °F 30.11 in NE 12.0 mph 19.0 mph 78% 0.00 in 12.00 W/m2
19:34 26.5 °F 20.9 °F 30.11 in NE 15.0 mph 18.0 mph 79% 0.00 in 12.00 W/m2
19:39 26.4 °F 20.8 °F 30.11 in NE 14.0 mph 18.0 mph 79% 0.00 in 12.00 W/m2
19:44 26.4 °F 21.1 °F 30.11 in NE 14.0 mph 17.0 mph 80% 0.00 in 18.00 W/m2
19:49 26.4 °F 21.1 °F 30.11 in NE 7.0 mph 17.0 mph 80% 0.00 in 12.00 W/m2
19:54 26.4 °F 21.1 °F 30.11 in NE 9.0 mph 16.0 mph 80% 0.00 in 9.00 W/m2
19:59 26.5 °F 21.2 °F 30.11 in NNE 9.0 mph 16.0 mph 80% 0.00 in 7.00 W/m2
20:04 26.5 °F 21.2 °F 30.12 in NNE 7.0 mph 17.0 mph 80% 0.00 in 5.00 W/m2
20:09 26.5 °F 21.2 °F 30.12 in East 9.0 mph 17.0 mph 80% 0.00 in 0.00 W/m2
20:14 26.5 °F 21.2 °F 30.12 in NE 9.0 mph 15.0 mph 80% 0.00 in 0.00 W/m2
20:19 26.6 °F 21.3 °F 30.12 in NE 10.0 mph 18.0 mph 80% 0.00 in 0.00 W/m2
20:24 26.6 °F 21.3 °F 30.12 in NE 13.0 mph 18.0 mph 80% 0.00 in 0.00 W/m2
20:29 26.6 °F 21.3 °F 30.12 in NNE 7.0 mph 16.0 mph 80% 0.00 in 0.00 W/m2
20:34 26.6 °F 21.6 °F 30.12 in NE 8.0 mph 15.0 mph 81% 0.00 in 0.00 W/m2
20:39 26.6 °F 21.6 °F 30.12 in NE 14.0 mph 15.0 mph 81% 0.00 in 0.00 W/m2
20:44 26.6 °F 21.6 °F 30.12 in NE 12.0 mph 18.0 mph 81% 0.00 in 0.00 W/m2
20:49 26.5 °F 21.7 °F 30.12 in NNE 10.0 mph 18.0 mph 82% 0.00 in 0.00 W/m2
20:54 26.5 °F 21.7 °F 30.12 in NE 14.0 mph 15.0 mph 82% 0.00 in 0.00 W/m2
20:59 26.5 °F 21.7 °F 30.12 in NE 11.0 mph 15.0 mph 82% 0.00 in 0.00 W/m2
21:04 26.5 °F 21.7 °F 30.12 in NE 11.0 mph 15.0 mph 82% 0.00 in 0.00 W/m2
21:09 26.5 °F 22.0 °F 30.12 in NE 17.0 mph 17.0 mph 83% 0.00 in 0.00 W/m2
21:14 26.6 °F 22.1 °F 30.12 in NE 10.0 mph 17.0 mph 83% 0.00 in 0.00 W/m2
21:19 26.6 °F 22.1 °F 30.12 in NE 9.0 mph 17.0 mph 83% 0.00 in 0.00 W/m2
21:24 26.6 °F 22.1 °F 30.12 in NE 13.0 mph 16.0 mph 83% 0.00 in 0.00 W/m2
21:29 26.7 °F 22.2 °F 30.12 in NE 14.0 mph 14.0 mph 83% 0.00 in 0.00 W/m2
21:34 26.7 °F 22.2 °F 30.13 in ENE 14.0 mph 14.0 mph 83% 0.00 in 0.00 W/m2
21:39 26.7 °F 22.2 °F 30.13 in ENE 12.0 mph 15.0 mph 83% 0.00 in 0.00 W/m2
21:44 26.8 °F 22.3 °F 30.13 in NE 7.0 mph 15.0 mph 83% 0.00 in 0.00 W/m2
21:49 26.8 °F 22.3 °F 30.13 in NE 6.0 mph 15.0 mph 83% 0.00 in 0.00 W/m2
21:54 26.9 °F 22.4 °F 30.13 in NE 9.0 mph 13.0 mph 83% 0.00 in 0.00 W/m2
21:59 26.9 °F 22.4 °F 30.12 in NE 7.0 mph 13.0 mph 83% 0.00 in 0.00 W/m2
22:04 26.9 °F 22.4 °F 30.12 in NE 6.0 mph 14.0 mph 83% 0.00 in 0.00 W/m2
22:09 27.0 °F 22.5 °F 30.12 in ENE 10.0 mph 14.0 mph 83% 0.00 in 0.00 W/m2
22:14 27.0 °F 22.2 °F 30.13 in NE 11.0 mph 13.0 mph 82% 0.00 in 0.00 W/m2
22:19 27.1 °F 22.3 °F 30.12 in NE 9.0 mph 13.0 mph 82% 0.00 in 0.00 W/m2
22:24 27.1 °F 22.3 °F 30.12 in NE 10.0 mph 12.0 mph 82% 0.00 in 0.00 W/m2
22:29 27.1 °F 22.6 °F 30.12 in NNE 8.0 mph 15.0 mph 83% 0.00 in 0.00 W/m2
22:34 27.1 °F 22.3 °F 30.12 in NE 13.0 mph 15.0 mph 82% 0.00 in 0.00 W/m2
22:39 27.2 °F 22.4 °F 30.12 in NE 11.0 mph 14.0 mph 82% 0.00 in 0.00 W/m2
22:44 27.2 °F 22.4 °F 30.12 in NE 4.0 mph 14.0 mph 82% 0.00 in 0.00 W/m2
22:49 27.3 °F 22.5 °F 30.12 in NE 6.0 mph 14.0 mph 82% 0.00 in 0.00 W/m2
22:54 27.3 °F 22.5 °F 30.12 in NNE 7.0 mph 13.0 mph 82% 0.00 in 0.00 W/m2
22:59 27.4 °F 22.6 °F 30.12 in NNE 5.0 mph 14.0 mph 82% 0.00 in 0.00 W/m2
23:04 27.4 °F 22.6 °F 30.12 in NE 11.0 mph 14.0 mph 82% 0.00 in 0.00 W/m2
23:09 27.5 °F 22.7 °F 30.12 in NE 9.0 mph 14.0 mph 82% 0.00 in 0.00 W/m2
23:14 27.5 °F 22.7 °F 30.11 in NE 6.0 mph 14.0 mph 82% 0.00 in 0.00 W/m2
23:19 27.5 °F 22.7 °F 30.11 in NNE 10.0 mph 13.0 mph 82% 0.00 in 0.00 W/m2
23:24 27.6 °F 22.8 °F 30.11 in NE 10.0 mph 13.0 mph 82% 0.00 in 0.00 W/m2
23:29 27.6 °F 23.1 °F 30.11 in NNE 6.0 mph 12.0 mph 83% 0.00 in 0.00 W/m2
23:34 27.6 °F 23.1 °F 30.11 in North 10.0 mph 12.0 mph 83% 0.00 in 0.00 W/m2
23:39 27.6 °F 23.1 °F 30.10 in NNE 9.0 mph 13.0 mph 83% 0.00 in 0.00 W/m2
23:44 27.6 °F 23.1 °F 30.10 in NNE 10.0 mph 13.0 mph 83% 0.00 in 0.00 W/m2
23:49 27.6 °F 23.1 °F 30.10 in NNE 9.0 mph 13.0 mph 83% 0.00 in 0.00 W/m2
23:54 27.7 °F 23.2 °F 30.10 in NNE 8.0 mph 12.0 mph 83% 0.00 in 0.00 W/m2
23:59 27.8 °F 23.3 °F 30.10 in NNE 10.0 mph 13.0 mph 83% 0.00 in 0.00 W/m2
Bismarck, North Dakota, USA
Compliments of Weather Underground - 4 mb